sensor_id;sensor_type;location;lat;lon;timestamp;P1;durP1;ratioP1;P2;durP2;ratioP2
67146;SDS011;70072;52.036;5.558;2023-05-14T00:02:21;10.68;;;4.78;;
67146;SDS011;70072;52.036;5.558;2023-05-14T00:04:47;11.68;;;5.03;;
67146;SDS011;70072;52.036;5.558;2023-05-14T00:07:13;7.38;;;4.90;;
67146;SDS011;70072;52.036;5.558;2023-05-14T00:09:38;9.93;;;4.75;;
67146;SDS011;70072;52.036;5.558;2023-05-14T00:12:04;10.68;;;5.05;;
67146;SDS011;70072;52.036;5.558;2023-05-14T00:14:30;11.60;;;5.20;;
67146;SDS011;70072;52.036;5.558;2023-05-14T00:16:56;10.70;;;4.82;;
67146;SDS011;70072;52.036;5.558;2023-05-14T00:19:22;7.00;;;4.93;;
67146;SDS011;70072;52.036;5.558;2023-05-14T00:21:47;8.15;;;4.55;;
67146;SDS011;70072;52.036;5.558;2023-05-14T00:24:13;10.77;;;4.80;;
67146;SDS011;70072;52.036;5.558;2023-05-14T00:26:39;7.97;;;4.72;;
67146;SDS011;70072;52.036;5.558;2023-05-14T00:29:04;15.35;;;4.93;;
67146;SDS011;70072;52.036;5.558;2023-05-14T00:31:30;12.13;;;4.78;;
67146;SDS011;70072;52.036;5.558;2023-05-14T00:33:56;13.93;;;5.00;;
67146;SDS011;70072;52.036;5.558;2023-05-14T00:36:21;8.98;;;5.10;;
67146;SDS011;70072;52.036;5.558;2023-05-14T00:38:47;14.23;;;5.10;;
67146;SDS011;70072;52.036;5.558;2023-05-14T00:41:13;14.98;;;5.30;;
67146;SDS011;70072;52.036;5.558;2023-05-14T00:43:39;11.82;;;5.00;;
67146;SDS011;70072;52.036;5.558;2023-05-14T00:46:04;8.15;;;4.95;;
67146;SDS011;70072;52.036;5.558;2023-05-14T00:48:30;13.75;;;5.10;;
67146;SDS011;70072;52.036;5.558;2023-05-14T00:50:56;11.27;;;4.88;;
67146;SDS011;70072;52.036;5.558;2023-05-14T00:53:22;11.80;;;4.72;;
67146;SDS011;70072;52.036;5.558;2023-05-14T00:55:48;7.38;;;4.75;;
67146;SDS011;70072;52.036;5.558;2023-05-14T00:58:14;8.02;;;4.95;;
67146;SDS011;70072;52.036;5.558;2023-05-14T01:00:41;9.40;;;4.50;;
67146;SDS011;70072;52.036;5.558;2023-05-14T01:03:07;7.80;;;4.60;;
67146;SDS011;70072;52.036;5.558;2023-05-14T01:10:54;10.88;;;4.65;;
67146;SDS011;70072;52.036;5.558;2023-05-14T01:13:32;5.60;;;4.32;;
67146;SDS011;70072;52.036;5.558;2023-05-14T01:16:05;7.35;;;4.60;;
67146;SDS011;70072;52.036;5.558;2023-05-14T01:18:36;14.23;;;4.18;;
67146;SDS011;70072;52.036;5.558;2023-05-14T01:21:03;7.30;;;4.72;;
67146;SDS011;70072;52.036;5.558;2023-05-14T01:23:30;11.70;;;4.55;;
67146;SDS011;70072;52.036;5.558;2023-05-14T01:25:55;8.50;;;4.00;;
67146;SDS011;70072;52.036;5.558;2023-05-14T01:28:23;7.38;;;4.47;;
67146;SDS011;70072;52.036;5.558;2023-05-14T01:31:00;10.60;;;4.15;;
67146;SDS011;70072;52.036;5.558;2023-05-14T01:33:36;9.55;;;4.30;;
67146;SDS011;70072;52.036;5.558;2023-05-14T01:36:04;6.28;;;4.10;;
67146;SDS011;70072;52.036;5.558;2023-05-14T01:38:33;7.70;;;4.38;;
67146;SDS011;70072;52.036;5.558;2023-05-14T01:41:00;8.25;;;4.20;;
67146;SDS011;70072;52.036;5.558;2023-05-14T01:43:27;10.07;;;4.00;;
67146;SDS011;70072;52.036;5.558;2023-05-14T01:45:53;6.22;;;3.90;;
67146;SDS011;70072;52.036;5.558;2023-05-14T01:48:19;4.90;;;3.83;;
67146;SDS011;70072;52.036;5.558;2023-05-14T01:50:45;7.15;;;4.18;;
67146;SDS011;70072;52.036;5.558;2023-05-14T01:53:11;10.35;;;4.28;;
67146;SDS011;70072;52.036;5.558;2023-05-14T01:55:37;7.68;;;4.00;;
67146;SDS011;70072;52.036;5.558;2023-05-14T01:58:03;7.80;;;4.32;;
67146;SDS011;70072;52.036;5.558;2023-05-14T02:00:28;7.47;;;3.90;;
67146;SDS011;70072;52.036;5.558;2023-05-14T02:02:54;6.00;;;4.03;;
67146;SDS011;70072;52.036;5.558;2023-05-14T02:05:20;5.35;;;3.72;;
67146;SDS011;70072;52.036;5.558;2023-05-14T02:07:46;5.75;;;4.10;;
67146;SDS011;70072;52.036;5.558;2023-05-14T02:10:11;9.15;;;3.55;;
67146;SDS011;70072;52.036;5.558;2023-05-14T02:12:37;5.75;;;3.90;;
67146;SDS011;70072;52.036;5.558;2023-05-14T02:15:03;6.68;;;4.38;;
67146;SDS011;70072;52.036;5.558;2023-05-14T02:17:29;7.00;;;4.03;;
67146;SDS011;70072;52.036;5.558;2023-05-14T02:19:54;5.55;;;4.03;;
67146;SDS011;70072;52.036;5.558;2023-05-14T02:22:20;12.00;;;4.30;;
67146;SDS011;70072;52.036;5.558;2023-05-14T02:24:46;5.60;;;3.95;;
67146;SDS011;70072;52.036;5.558;2023-05-14T02:27:13;8.80;;;4.10;;
67146;SDS011;70072;52.036;5.558;2023-05-14T02:29:39;8.02;;;4.18;;
67146;SDS011;70072;52.036;5.558;2023-05-14T02:32:05;7.28;;;4.20;;
67146;SDS011;70072;52.036;5.558;2023-05-14T02:34:31;16.58;;;4.10;;
67146;SDS011;70072;52.036;5.558;2023-05-14T02:36:58;15.63;;;4.03;;
67146;SDS011;70072;52.036;5.558;2023-05-14T02:39:24;10.38;;;4.18;;
67146;SDS011;70072;52.036;5.558;2023-05-14T02:41:50;10.60;;;4.00;;
67146;SDS011;70072;52.036;5.558;2023-05-14T02:44:15;15.20;;;4.18;;
67146;SDS011;70072;52.036;5.558;2023-05-14T02:46:43;5.93;;;3.65;;
67146;SDS011;70072;52.036;5.558;2023-05-14T02:49:09;7.05;;;3.78;;
67146;SDS011;70072;52.036;5.558;2023-05-14T02:51:34;7.78;;;4.18;;
67146;SDS011;70072;52.036;5.558;2023-05-14T02:54:00;6.75;;;4.38;;
67146;SDS011;70072;52.036;5.558;2023-05-14T02:56:26;5.70;;;3.80;;
67146;SDS011;70072;52.036;5.558;2023-05-14T02:58:52;5.38;;;3.67;;
67146;SDS011;70072;52.036;5.558;2023-05-14T03:01:17;7.78;;;3.80;;
67146;SDS011;70072;52.036;5.558;2023-05-14T03:03:43;7.47;;;3.72;;
67146;SDS011;70072;52.036;5.558;2023-05-14T03:06:08;5.95;;;3.70;;
67146;SDS011;70072;52.036;5.558;2023-05-14T03:08:34;7.93;;;3.72;;
67146;SDS011;70072;52.036;5.558;2023-05-14T03:11:00;8.85;;;3.50;;
67146;SDS011;70072;52.036;5.558;2023-05-14T03:13:28;4.88;;;3.75;;
67146;SDS011;70072;52.036;5.558;2023-05-14T03:15:54;5.50;;;3.47;;
67146;SDS011;70072;52.036;5.558;2023-05-14T03:18:21;6.10;;;3.60;;
67146;SDS011;70072;52.036;5.558;2023-05-14T03:20:47;9.18;;;3.63;;
67146;SDS011;70072;52.036;5.558;2023-05-14T03:23:13;5.15;;;3.75;;
67146;SDS011;70072;52.036;5.558;2023-05-14T03:25:39;7.38;;;3.50;;
67146;SDS011;70072;52.036;5.558;2023-05-14T03:28:07;6.97;;;3.20;;
67146;SDS011;70072;52.036;5.558;2023-05-14T03:30:33;6.63;;;3.78;;
67146;SDS011;70072;52.036;5.558;2023-05-14T03:33:01;6.82;;;3.55;;
67146;SDS011;70072;52.036;5.558;2023-05-14T03:35:27;9.27;;;3.60;;
67146;SDS011;70072;52.036;5.558;2023-05-14T03:37:52;4.88;;;3.13;;
67146;SDS011;70072;52.036;5.558;2023-05-14T03:40:18;8.05;;;3.50;;
67146;SDS011;70072;52.036;5.558;2023-05-14T03:42:45;7.20;;;3.40;;
67146;SDS011;70072;52.036;5.558;2023-05-14T03:45:10;4.35;;;2.92;;
67146;SDS011;70072;52.036;5.558;2023-05-14T03:47:39;6.18;;;3.22;;
67146;SDS011;70072;52.036;5.558;2023-05-14T03:50:05;5.65;;;3.28;;
67146;SDS011;70072;52.036;5.558;2023-05-14T03:52:32;4.80;;;3.72;;
67146;SDS011;70072;52.036;5.558;2023-05-14T03:54:57;5.88;;;3.40;;
67146;SDS011;70072;52.036;5.558;2023-05-14T03:57:23;3.78;;;3.38;;
67146;SDS011;70072;52.036;5.558;2023-05-14T03:59:48;5.38;;;3.25;;
67146;SDS011;70072;52.036;5.558;2023-05-14T04:02:14;4.85;;;3.30;;
67146;SDS011;70072;52.036;5.558;2023-05-14T04:04:40;6.35;;;3.50;;
67146;SDS011;70072;52.036;5.558;2023-05-14T04:07:06;12.38;;;3.47;;
67146;SDS011;70072;52.036;5.558;2023-05-14T04:09:32;26.75;;;4.28;;
67146;SDS011;70072;52.036;5.558;2023-05-14T04:11:58;19.27;;;3.60;;
67146;SDS011;70072;52.036;5.558;2023-05-14T04:14:24;9.38;;;3.70;;
67146;SDS011;70072;52.036;5.558;2023-05-14T04:16:50;10.88;;;3.70;;
67146;SDS011;70072;52.036;5.558;2023-05-14T04:19:15;13.43;;;3.58;;
67146;SDS011;70072;52.036;5.558;2023-05-14T04:21:41;8.52;;;3.58;;
67146;SDS011;70072;52.036;5.558;2023-05-14T04:24:07;8.63;;;3.45;;
67146;SDS011;70072;52.036;5.558;2023-05-14T04:26:34;9.90;;;3.50;;
67146;SDS011;70072;52.036;5.558;2023-05-14T04:29:00;11.88;;;3.42;;
67146;SDS011;70072;52.036;5.558;2023-05-14T04:31:28;6.43;;;3.30;;
67146;SDS011;70072;52.036;5.558;2023-05-14T04:33:57;11.40;;;3.50;;
67146;SDS011;70072;52.036;5.558;2023-05-14T04:36:25;14.00;;;3.47;;
67146;SDS011;70072;52.036;5.558;2023-05-14T04:38:51;9.02;;;3.35;;
67146;SDS011;70072;52.036;5.558;2023-05-14T04:41:16;8.15;;;3.53;;
67146;SDS011;70072;52.036;5.558;2023-05-14T04:43:42;6.45;;;3.33;;
67146;SDS011;70072;52.036;5.558;2023-05-14T04:46:07;8.18;;;3.80;;
67146;SDS011;70072;52.036;5.558;2023-05-14T04:48:33;10.50;;;3.53;;
67146;SDS011;70072;52.036;5.558;2023-05-14T04:50:59;6.38;;;3.45;;
67146;SDS011;70072;52.036;5.558;2023-05-14T04:53:29;8.63;;;3.45;;
67146;SDS011;70072;52.036;5.558;2023-05-14T04:55:55;4.43;;;3.28;;
67146;SDS011;70072;52.036;5.558;2023-05-14T04:58:20;6.93;;;3.30;;
67146;SDS011;70072;52.036;5.558;2023-05-14T05:00:48;6.03;;;3.35;;
67146;SDS011;70072;52.036;5.558;2023-05-14T05:03:14;7.45;;;3.33;;
67146;SDS011;70072;52.036;5.558;2023-05-14T05:05:39;6.53;;;3.20;;
67146;SDS011;70072;52.036;5.558;2023-05-14T05:08:05;5.35;;;3.35;;
67146;SDS011;70072;52.036;5.558;2023-05-14T05:10:31;4.85;;;3.03;;
67146;SDS011;70072;52.036;5.558;2023-05-14T05:12:56;6.00;;;3.15;;
67146;SDS011;70072;52.036;5.558;2023-05-14T05:15:22;3.92;;;3.00;;
67146;SDS011;70072;52.036;5.558;2023-05-14T05:17:50;8.50;;;3.60;;
67146;SDS011;70072;52.036;5.558;2023-05-14T05:20:16;9.25;;;3.13;;
67146;SDS011;70072;52.036;5.558;2023-05-14T05:22:42;7.63;;;3.33;;
67146;SDS011;70072;52.036;5.558;2023-05-14T05:25:08;4.80;;;3.05;;
67146;SDS011;70072;52.036;5.558;2023-05-14T05:27:36;7.70;;;3.35;;
67146;SDS011;70072;52.036;5.558;2023-05-14T05:30:02;3.28;;;2.72;;
67146;SDS011;70072;52.036;5.558;2023-05-14T05:32:29;8.90;;;3.15;;
67146;SDS011;70072;52.036;5.558;2023-05-14T05:34:55;9.40;;;3.08;;
67146;SDS011;70072;52.036;5.558;2023-05-14T05:37:21;8.52;;;3.08;;
67146;SDS011;70072;52.036;5.558;2023-05-14T05:39:46;9.18;;;3.40;;
67146;SDS011;70072;52.036;5.558;2023-05-14T05:42:12;7.28;;;3.13;;
67146;SDS011;70072;52.036;5.558;2023-05-14T05:44:40;11.63;;;3.85;;
67146;SDS011;70072;52.036;5.558;2023-05-14T05:47:06;54.92;;;4.50;;
67146;SDS011;70072;52.036;5.558;2023-05-14T05:49:34;11.13;;;3.72;;
67146;SDS011;70072;52.036;5.558;2023-05-14T05:52:01;12.05;;;3.33;;
67146;SDS011;70072;52.036;5.558;2023-05-14T05:54:30;12.50;;;3.65;;
67146;SDS011;70072;52.036;5.558;2023-05-14T05:56:56;19.20;;;3.80;;
67146;SDS011;70072;52.036;5.558;2023-05-14T05:59:23;23.35;;;3.90;;
67146;SDS011;70072;52.036;5.558;2023-05-14T06:01:49;14.35;;;3.45;;
67146;SDS011;70072;52.036;5.558;2023-05-14T06:04:19;11.55;;;3.80;;
67146;SDS011;70072;52.036;5.558;2023-05-14T06:06:45;12.13;;;3.80;;
67146;SDS011;70072;52.036;5.558;2023-05-14T06:09:10;11.05;;;3.20;;
67146;SDS011;70072;52.036;5.558;2023-05-14T06:11:37;8.43;;;3.45;;
67146;SDS011;70072;52.036;5.558;2023-05-14T06:14:02;7.40;;;3.30;;
67146;SDS011;70072;52.036;5.558;2023-05-14T06:16:28;14.52;;;3.70;;
67146;SDS011;70072;52.036;5.558;2023-05-14T06:18:54;9.52;;;3.42;;
67146;SDS011;70072;52.036;5.558;2023-05-14T06:21:20;12.10;;;3.45;;
67146;SDS011;70072;52.036;5.558;2023-05-14T06:23:45;7.78;;;3.35;;
67146;SDS011;70072;52.036;5.558;2023-05-14T06:26:11;6.30;;;3.30;;
67146;SDS011;70072;52.036;5.558;2023-05-14T06:28:39;9.35;;;3.35;;
67146;SDS011;70072;52.036;5.558;2023-05-14T06:31:04;9.85;;;3.15;;
67146;SDS011;70072;52.036;5.558;2023-05-14T06:33:30;7.35;;;2.80;;
67146;SDS011;70072;52.036;5.558;2023-05-14T06:35:59;11.32;;;3.45;;
67146;SDS011;70072;52.036;5.558;2023-05-14T06:38:27;8.27;;;3.10;;
67146;SDS011;70072;52.036;5.558;2023-05-14T06:40:53;12.57;;;3.00;;
67146;SDS011;70072;52.036;5.558;2023-05-14T06:43:18;6.57;;;2.90;;
67146;SDS011;70072;52.036;5.558;2023-05-14T06:45:47;11.38;;;2.95;;
67146;SDS011;70072;52.036;5.558;2023-05-14T06:48:13;11.05;;;3.22;;
67146;SDS011;70072;52.036;5.558;2023-05-14T06:50:39;11.45;;;3.40;;
67146;SDS011;70072;52.036;5.558;2023-05-14T06:53:05;8.10;;;3.08;;
67146;SDS011;70072;52.036;5.558;2023-05-14T06:55:30;13.95;;;3.10;;
67146;SDS011;70072;52.036;5.558;2023-05-14T06:57:58;26.35;;;3.50;;
67146;SDS011;70072;52.036;5.558;2023-05-14T07:00:24;17.73;;;3.65;;
67146;SDS011;70072;52.036;5.558;2023-05-14T07:02:50;20.20;;;3.13;;
67146;SDS011;70072;52.036;5.558;2023-05-14T07:05:15;19.38;;;3.80;;
67146;SDS011;70072;52.036;5.558;2023-05-14T07:07:41;19.60;;;3.30;;
67146;SDS011;70072;52.036;5.558;2023-05-14T07:10:07;13.52;;;3.58;;
67146;SDS011;70072;52.036;5.558;2023-05-14T07:12:32;14.32;;;4.25;;
67146;SDS011;70072;52.036;5.558;2023-05-14T07:14:58;6.60;;;2.97;;
67146;SDS011;70072;52.036;5.558;2023-05-14T07:17:24;14.55;;;3.38;;
67146;SDS011;70072;52.036;5.558;2023-05-14T07:19:49;8.32;;;3.05;;
67146;SDS011;70072;52.036;5.558;2023-05-14T07:22:15;14.88;;;3.65;;
67146;SDS011;70072;52.036;5.558;2023-05-14T07:24:41;15.10;;;3.10;;
67146;SDS011;70072;52.036;5.558;2023-05-14T07:27:06;19.55;;;2.90;;
67146;SDS011;70072;52.036;5.558;2023-05-14T07:29:33;8.65;;;2.70;;
67146;SDS011;70072;52.036;5.558;2023-05-14T07:31:59;12.25;;;3.35;;
67146;SDS011;70072;52.036;5.558;2023-05-14T07:34:25;6.68;;;2.80;;
67146;SDS011;70072;52.036;5.558;2023-05-14T07:36:51;9.05;;;2.83;;
67146;SDS011;70072;52.036;5.558;2023-05-14T07:39:17;8.00;;;3.08;;
67146;SDS011;70072;52.036;5.558;2023-05-14T07:41:42;18.75;;;3.00;;
67146;SDS011;70072;52.036;5.558;2023-05-14T07:44:10;9.68;;;2.83;;
67146;SDS011;70072;52.036;5.558;2023-05-14T07:46:36;11.30;;;2.97;;
67146;SDS011;70072;52.036;5.558;2023-05-14T07:49:04;11.48;;;2.60;;
67146;SDS011;70072;52.036;5.558;2023-05-14T07:51:30;7.30;;;2.75;;
67146;SDS011;70072;52.036;5.558;2023-05-14T07:53:57;9.10;;;2.55;;
67146;SDS011;70072;52.036;5.558;2023-05-14T07:56:23;13.13;;;3.00;;
67146;SDS011;70072;52.036;5.558;2023-05-14T07:58:49;9.55;;;2.90;;
67146;SDS011;70072;52.036;5.558;2023-05-14T08:01:15;10.35;;;2.40;;
67146;SDS011;70072;52.036;5.558;2023-05-14T08:03:40;9.98;;;2.85;;
67146;SDS011;70072;52.036;5.558;2023-05-14T08:06:06;6.10;;;2.70;;
67146;SDS011;70072;52.036;5.558;2023-05-14T08:08:32;14.30;;;3.03;;
67146;SDS011;70072;52.036;5.558;2023-05-14T08:10:57;7.38;;;2.70;;
67146;SDS011;70072;52.036;5.558;2023-05-14T08:13:23;11.52;;;2.90;;
67146;SDS011;70072;52.036;5.558;2023-05-14T08:15:49;9.13;;;2.80;;
67146;SDS011;70072;52.036;5.558;2023-05-14T08:18:15;10.00;;;2.80;;
67146;SDS011;70072;52.036;5.558;2023-05-14T08:20:41;6.10;;;2.78;;
67146;SDS011;70072;52.036;5.558;2023-05-14T08:23:06;11.70;;;2.83;;
67146;SDS011;70072;52.036;5.558;2023-05-14T08:25:33;3.72;;;2.10;;
67146;SDS011;70072;52.036;5.558;2023-05-14T08:27:59;11.32;;;2.72;;
67146;SDS011;70072;52.036;5.558;2023-05-14T08:30:25;9.60;;;2.55;;
67146;SDS011;70072;52.036;5.558;2023-05-14T08:32:51;4.60;;;2.47;;
67146;SDS011;70072;52.036;5.558;2023-05-14T08:35:19;6.38;;;2.80;;
67146;SDS011;70072;52.036;5.558;2023-05-14T08:37:45;9.75;;;2.60;;
67146;SDS011;70072;52.036;5.558;2023-05-14T08:40:10;10.35;;;2.80;;
67146;SDS011;70072;52.036;5.558;2023-05-14T08:42:37;4.70;;;2.25;;
67146;SDS011;70072;52.036;5.558;2023-05-14T08:45:05;10.20;;;2.55;;
67146;SDS011;70072;52.036;5.558;2023-05-14T08:47:38;7.45;;;2.45;;
67146;SDS011;70072;52.036;5.558;2023-05-14T08:50:06;8.13;;;2.42;;
67146;SDS011;70072;52.036;5.558;2023-05-14T08:52:32;2.88;;;2.20;;
67146;SDS011;70072;52.036;5.558;2023-05-14T08:54:59;5.30;;;2.10;;
67146;SDS011;70072;52.036;5.558;2023-05-14T08:57:29;8.02;;;2.50;;
67146;SDS011;70072;52.036;5.558;2023-05-14T08:59:56;5.53;;;2.33;;
67146;SDS011;70072;52.036;5.558;2023-05-14T09:02:23;8.35;;;2.60;;
67146;SDS011;70072;52.036;5.558;2023-05-14T09:04:57;10.35;;;2.53;;
67146;SDS011;70072;52.036;5.558;2023-05-14T09:07:24;2.58;;;1.88;;
67146;SDS011;70072;52.036;5.558;2023-05-14T09:09:50;6.93;;;2.55;;
67146;SDS011;70072;52.036;5.558;2023-05-14T09:12:16;4.25;;;2.22;;
67146;SDS011;70072;52.036;5.558;2023-05-14T09:14:43;3.90;;;2.33;;
67146;SDS011;70072;52.036;5.558;2023-05-14T09:17:09;8.73;;;2.20;;
67146;SDS011;70072;52.036;5.558;2023-05-14T09:19:39;8.45;;;2.20;;
67146;SDS011;70072;52.036;5.558;2023-05-14T09:22:13;4.47;;;2.10;;
67146;SDS011;70072;52.036;5.558;2023-05-14T09:24:40;3.65;;;2.20;;
67146;SDS011;70072;52.036;5.558;2023-05-14T09:27:06;3.80;;;2.10;;
67146;SDS011;70072;52.036;5.558;2023-05-14T09:29:32;4.63;;;2.13;;
67146;SDS011;70072;52.036;5.558;2023-05-14T09:31:58;9.43;;;2.17;;
67146;SDS011;70072;52.036;5.558;2023-05-14T09:34:32;3.38;;;1.80;;
67146;SDS011;70072;52.036;5.558;2023-05-14T09:39:29;3.38;;;2.03;;
67146;SDS011;70072;52.036;5.558;2023-05-14T09:41:55;6.88;;;2.33;;
67146;SDS011;70072;52.036;5.558;2023-05-14T09:44:22;6.45;;;2.05;;
67146;SDS011;70072;52.036;5.558;2023-05-14T09:46:48;4.25;;;2.03;;
67146;SDS011;70072;52.036;5.558;2023-05-14T09:49:15;6.05;;;2.40;;
67146;SDS011;70072;52.036;5.558;2023-05-14T09:51:41;2.15;;;1.88;;
67146;SDS011;70072;52.036;5.558;2023-05-14T09:54:07;4.70;;;2.13;;
67146;SDS011;70072;52.036;5.558;2023-05-14T09:56:33;4.18;;;2.05;;
67146;SDS011;70072;52.036;5.558;2023-05-14T09:59:00;3.78;;;1.98;;
67146;SDS011;70072;52.036;5.558;2023-05-14T10:01:27;2.97;;;1.90;;
67146;SDS011;70072;52.036;5.558;2023-05-14T10:03:54;4.97;;;1.83;;
67146;SDS011;70072;52.036;5.558;2023-05-14T10:06:27;3.90;;;1.98;;
67146;SDS011;70072;52.036;5.558;2023-05-14T10:08:59;4.50;;;2.00;;
67146;SDS011;70072;52.036;5.558;2023-05-14T10:11:29;6.10;;;2.15;;
67146;SDS011;70072;52.036;5.558;2023-05-14T10:16:30;6.50;;;1.95;;
67146;SDS011;70072;52.036;5.558;2023-05-14T10:19:08;2.80;;;1.88;;
67146;SDS011;70072;52.036;5.558;2023-05-14T10:21:37;2.70;;;1.73;;
67146;SDS011;70072;52.036;5.558;2023-05-14T10:24:05;3.70;;;2.08;;
67146;SDS011;70072;52.036;5.558;2023-05-14T10:26:33;3.08;;;2.13;;
67146;SDS011;70072;52.036;5.558;2023-05-14T10:29:03;3.00;;;1.70;;
67146;SDS011;70072;52.036;5.558;2023-05-14T10:34:57;5.57;;;2.08;;
67146;SDS011;70072;52.036;5.558;2023-05-14T10:37:10;6.15;;;2.40;;
67146;SDS011;70072;52.036;5.558;2023-05-14T10:39:45;12.02;;;2.10;;
67146;SDS011;70072;52.036;5.558;2023-05-14T10:42:12;10.85;;;2.45;;
67146;SDS011;70072;52.036;5.558;2023-05-14T10:47:22;3.80;;;2.17;;
67146;SDS011;70072;52.036;5.558;2023-05-14T10:49:48;10.65;;;2.70;;
67146;SDS011;70072;52.036;5.558;2023-05-14T10:52:17;7.57;;;2.60;;
67146;SDS011;70072;52.036;5.558;2023-05-14T10:54:53;4.45;;;2.50;;
67146;SDS011;70072;52.036;5.558;2023-05-14T10:57:23;5.72;;;3.10;;
67146;SDS011;70072;52.036;5.558;2023-05-14T10:59:52;11.30;;;2.95;;
67146;SDS011;70072;52.036;5.558;2023-05-14T11:02:23;8.38;;;4.00;;
67146;SDS011;70072;52.036;5.558;2023-05-14T11:04:54;7.90;;;4.25;;
67146;SDS011;70072;52.036;5.558;2023-05-14T11:07:35;14.63;;;4.90;;
67146;SDS011;70072;52.036;5.558;2023-05-14T11:10:34;10.27;;;4.10;;
67146;SDS011;70072;52.036;5.558;2023-05-14T11:12:54;9.25;;;4.85;;
67146;SDS011;70072;52.036;5.558;2023-05-14T11:15:22;25.58;;;5.20;;
67146;SDS011;70072;52.036;5.558;2023-05-14T11:17:49;12.55;;;4.78;;
67146;SDS011;70072;52.036;5.558;2023-05-14T11:20:15;8.88;;;4.97;;
67146;SDS011;70072;52.036;5.558;2023-05-14T11:22:42;23.88;;;5.75;;
